Time;durP1;ratioP1;P1;durP2;ratioP2;P2;SDS_P1;SDS_P2;PMS_P1;PMS_P2;Temp;Humidity;BMP_temperature;BMP_pressure;BME280_temperature;BME280_humidity;BME280_pressure;Samples;Min_cycle;Max_cycle;Signal;HPM_P1;HPM_P2
2023/05/19 00:01:53;;;;;;;14.65;5.35;;;;;;;;;;5049908;28;20238;-66
2023/05/19 00:04:20;;;;;;;14.35;5.70;;;;;;;;;;5050421;28;20215;-66
2023/05/19 00:06:47;;;;;;;9.90;5.40;;;;;;;;;;5051101;28;20218;-66
2023/05/19 00:09:12;;;;;;;14.48;5.95;;;;;;;;;;5048354;28;20277;-66
2023/05/19 00:11:38;;;;;;;14.25;6.32;;;;;;;;;;5050802;28;20675;-66
2023/05/19 00:14:04;;;;;;;12.88;6.20;;;;;;;;;;5050312;28;20210;-66
2023/05/19 00:16:29;;;;;;;11.98;5.80;;;;;;;;;;5051120;28;20222;-67
2023/05/19 00:18:56;;;;;;;10.80;5.75;;;;;;;;;;5050370;28;20589;-67
2023/05/19 00:21:22;;;;;;;13.60;6.10;;;;;;;;;;5050166;28;20265;-66
2023/05/19 00:23:47;;;;;;;11.23;5.50;;;;;;;;;;5050798;28;20207;-67
2023/05/19 00:26:12;;;;;;;13.05;5.90;;;;;;;;;;5050092;28;20214;-66
2023/05/19 00:28:37;;;;;;;16.02;6.13;;;;;;;;;;5049430;28;20238;-67
2023/05/19 00:31:04;;;;;;;17.05;5.82;;;;;;;;;;5050450;28;20678;-66
2023/05/19 00:33:29;;;;;;;15.48;6.60;;;;;;;;;;5050231;28;20677;-66
2023/05/19 00:35:54;;;;;;;10.38;6.03;;;;;;;;;;5050459;28;20207;-67
2023/05/19 00:38:20;;;;;;;17.10;6.65;;;;;;;;;;5050301;28;20223;-66
2023/05/19 00:40:45;;;;;;;12.98;6.43;;;;;;;;;;5050118;28;20282;-67
2023/05/19 00:43:10;;;;;;;11.82;6.40;;;;;;;;;;5049943;28;20218;-66
2023/05/19 00:45:36;;;;;;;14.00;6.75;;;;;;;;;;5050588;28;20211;-66
2023/05/19 00:48:01;;;;;;;14.88;6.78;;;;;;;;;;5049723;28;20215;-64
2023/05/19 00:50:27;;;;;;;14.48;6.13;;;;;;;;;;5050175;28;20215;-66
2023/05/19 00:52:52;;;;;;;16.45;6.35;;;;;;;;;;5050239;28;20267;-67
2023/05/19 00:55:18;;;;;;;15.80;6.68;;;;;;;;;;5049491;28;20211;-66
2023/05/19 00:57:43;;;;;;;12.82;5.82;;;;;;;;;;5049002;28;20215;-67
2023/05/19 01:00:10;;;;;;;15.23;6.15;;;;;;;;;;5049881;28;20200;-66
2023/05/19 01:02:36;;;;;;;14.05;6.70;;;;;;;;;;5049812;28;20352;-66
2023/05/19 01:05:02;;;;;;;14.57;6.45;;;;;;;;;;5048526;28;20207;-65
2023/05/19 01:07:27;;;;;;;15.15;6.55;;;;;;;;;;5049662;28;20211;-66
2023/05/19 01:09:52;;;;;;;11.73;6.95;;;;;;;;;;5049800;28;20222;-67
2023/05/19 01:12:18;;;;;;;20.67;7.25;;;;;;;;;;5048678;28;20203;-66
2023/05/19 01:14:43;;;;;;;14.20;7.03;;;;;;;;;;5035293;28;20211;-66
2023/05/19 01:17:13;;;;;;;17.70;6.95;;;;;;;;;;5039968;28;20207;-65
2023/05/19 01:19:50;;;;;;;14.15;7.30;;;;;;;;;;5032206;28;20863;-66
2023/05/19 01:22:31;;;;;;;13.15;7.05;;;;;;;;;;5028010;28;20216;-66
2023/05/19 01:24:56;;;;;;;15.40;7.57;;;;;;;;;;5028477;28;20261;-67
2023/05/19 01:27:29;;;;;;;15.70;7.22;;;;;;;;;;5029751;28;20299;-66
2023/05/19 01:30:09;;;;;;;15.10;7.25;;;;;;;;;;5028418;28;20231;-66
2023/05/19 01:32:35;;;;;;;19.58;7.28;;;;;;;;;;5029705;28;20215;-66
2023/05/19 01:35:00;;;;;;;16.77;7.70;;;;;;;;;;5028819;28;20805;-66
2023/05/19 01:37:26;;;;;;;16.95;7.55;;;;;;;;;;5028146;28;20208;-66
2023/05/19 01:39:51;;;;;;;15.75;7.72;;;;;;;;;;5029862;28;20261;-66
2023/05/19 01:42:16;;;;;;;12.32;6.88;;;;;;;;;;5028237;28;20226;-66
2023/05/19 01:44:42;;;;;;;16.40;7.97;;;;;;;;;;5029592;28;20232;-66
2023/05/19 01:47:07;;;;;;;19.30;8.00;;;;;;;;;;5029209;28;20300;-66
2023/05/19 01:49:32;;;;;;;13.85;7.55;;;;;;;;;;5029437;28;20258;-66
2023/05/19 01:51:58;;;;;;;16.88;7.80;;;;;;;;;;5029789;28;20257;-66
2023/05/19 01:54:23;;;;;;;16.98;8.38;;;;;;;;;;5029547;28;20682;-66
2023/05/19 01:56:54;;;;;;;14.80;8.10;;;;;;;;;;5029406;28;20579;-66
2023/05/19 01:59:23;;;;;;;17.90;7.65;;;;;;;;;;5029151;28;20294;-66
2023/05/19 02:01:52;;;;;;;15.85;7.57;;;;;;;;;;5029989;28;20218;-66
2023/05/19 02:04:19;;;;;;;21.17;8.30;;;;;;;;;;5028925;28;20211;-66
2023/05/19 02:06:48;;;;;;;13.05;8.02;;;;;;;;;;5029764;28;20265;-66
2023/05/19 02:09:17;;;;;;;17.13;8.35;;;;;;;;;;5027993;28;20224;-66
2023/05/19 02:11:43;;;;;;;15.15;7.75;;;;;;;;;;5029207;28;20302;-66
2023/05/19 02:14:12;;;;;;;18.38;8.20;;;;;;;;;;5037258;28;20289;-66
2023/05/19 02:16:38;;;;;;;14.65;8.20;;;;;;;;;;5049669;28;20210;-66
2023/05/19 02:19:03;;;;;;;16.45;7.90;;;;;;;;;;5048573;28;20223;-65
2023/05/19 02:21:29;;;;;;;18.55;8.93;;;;;;;;;;5049468;28;20282;-66
2023/05/19 02:23:55;;;;;;;20.50;9.55;;;;;;;;;;5049401;28;20211;-66
2023/05/19 02:26:20;;;;;;;16.52;8.98;;;;;;;;;;5048394;28;20577;-66
2023/05/19 02:28:45;;;;;;;17.20;9.70;;;;;;;;;;5049409;28;20698;-66
2023/05/19 02:31:11;;;;;;;18.30;8.80;;;;;;;;;;5049490;28;20215;-65
2023/05/19 02:33:36;;;;;;;17.95;8.82;;;;;;;;;;5052730;28;20241;-66
2023/05/19 02:36:02;;;;;;;18.60;10.32;;;;;;;;;;5052431;28;20704;-65
2023/05/19 02:38:27;;;;;;;14.93;8.32;;;;;;;;;;5052964;28;20805;-66
2023/05/19 02:40:52;;;;;;;18.60;9.75;;;;;;;;;;5052541;28;20221;-66
2023/05/19 02:43:18;;;;;;;17.38;9.90;;;;;;;;;;5052047;28;20206;-66
2023/05/19 02:45:43;;;;;;;15.88;9.48;;;;;;;;;;5052971;28;20207;-66
2023/05/19 02:48:08;;;;;;;16.50;9.00;;;;;;;;;;5051593;28;20234;-66
2023/05/19 02:50:33;;;;;;;18.33;9.48;;;;;;;;;;5052827;28;20700;-66
2023/05/19 02:52:59;;;;;;;18.05;9.15;;;;;;;;;;5051991;28;20211;-66
2023/05/19 02:55:24;;;;;;;18.10;9.07;;;;;;;;;;5052124;28;20217;-66
2023/05/19 02:57:49;;;;;;;19.42;9.15;;;;;;;;;;5052487;28;20671;-66
2023/05/19 03:00:15;;;;;;;18.67;10.27;;;;;;;;;;5051631;28;20405;-66
2023/05/19 03:02:42;;;;;;;19.45;9.23;;;;;;;;;;5052301;28;20203;-66
2023/05/19 03:05:09;;;;;;;24.25;10.02;;;;;;;;;;5052187;28;20207;-65
2023/05/19 03:07:34;;;;;;;17.60;9.88;;;;;;;;;;5051950;28;20203;-66
2023/05/19 03:10:02;;;;;;;19.85;10.82;;;;;;;;;;5052217;28;20697;-66
2023/05/19 03:12:27;;;;;;;21.23;10.75;;;;;;;;;;5051674;28;20310;-66
2023/05/19 03:14:53;;;;;;;18.02;9.25;;;;;;;;;;5051748;28;20689;-66
2023/05/19 03:17:18;;;;;;;21.75;10.93;;;;;;;;;;5051314;28;20215;-66
2023/05/19 03:19:43;;;;;;;19.88;9.90;;;;;;;;;;5052352;28;20728;-66
2023/05/19 03:22:09;;;;;;;20.15;10.18;;;;;;;;;;5051253;28;20258;-65
2023/05/19 03:24:35;;;;;;;18.07;10.10;;;;;;;;;;5051879;28;20211;-67
2023/05/19 03:27:01;;;;;;;22.60;11.05;;;;;;;;;;5051737;28;20341;-64
2023/05/19 03:29:26;;;;;;;20.63;10.57;;;;;;;;;;5051416;28;20223;-66
2023/05/19 03:31:51;;;;;;;23.27;11.27;;;;;;;;;;5051919;28;20955;-66
2023/05/19 03:34:17;;;;;;;23.00;11.48;;;;;;;;;;5051501;28;20303;-66
2023/05/19 03:36:43;;;;;;;23.98;11.98;;;;;;;;;;5051507;28;20303;-66
2023/05/19 03:39:08;;;;;;;20.13;10.05;;;;;;;;;;5051221;28;20218;-66
2023/05/19 03:41:34;;;;;;;16.95;10.15;;;;;;;;;;5051788;28;20207;-66
2023/05/19 03:44:00;;;;;;;20.48;11.27;;;;;;;;;;5051174;28;20207;-66
2023/05/19 03:46:25;;;;;;;22.65;10.30;;;;;;;;;;5051426;28;20679;-66
2023/05/19 03:48:50;;;;;;;19.27;10.85;;;;;;;;;;5051516;28;20223;-66
2023/05/19 03:51:16;;;;;;;23.10;11.60;;;;;;;;;;5050533;28;20669;-65
2023/05/19 03:53:41;;;;;;;21.52;11.93;;;;;;;;;;5051620;28;20207;-65
2023/05/19 03:56:06;;;;;;;19.25;11.43;;;;;;;;;;5050612;28;20233;-64
2023/05/19 03:58:32;;;;;;;17.92;10.70;;;;;;;;;;5049886;28;20286;-65
2023/05/19 04:00:57;;;;;;;23.23;11.77;;;;;;;;;;5051494;28;20207;-65
2023/05/19 04:03:24;;;;;;;22.17;11.52;;;;;;;;;;5050291;28;20709;-65
2023/05/19 04:05:50;;;;;;;20.83;11.90;;;;;;;;;;5051265;28;20199;-65
2023/05/19 04:08:15;;;;;;;20.92;11.77;;;;;;;;;;5050717;28;20284;-65
2023/05/19 04:10:41;;;;;;;19.80;10.48;;;;;;;;;;5050673;28;20206;-65
2023/05/19 04:13:06;;;;;;;21.42;10.80;;;;;;;;;;5050374;28;20211;-64
2023/05/19 04:15:31;;;;;;;18.60;9.82;;;;;;;;;;5050981;28;20219;-65
2023/05/19 04:17:56;;;;;;;23.10;11.95;;;;;;;;;;5050590;28;20227;-65
2023/05/19 04:20:22;;;;;;;22.38;11.57;;;;;;;;;;5050352;28;20218;-64
2023/05/19 04:22:47;;;;;;;19.65;10.45;;;;;;;;;;5050934;28;20600;-65
2023/05/19 04:25:12;;;;;;;20.00;11.05;;;;;;;;;;5049796;28;20235;-65
2023/05/19 04:27:38;;;;;;;15.32;9.43;;;;;;;;;;5050765;28;20257;-65
2023/05/19 04:30:04;;;;;;;14.45;8.85;;;;;;;;;;5050420;28;20266;-64
2023/05/19 04:32:29;;;;;;;18.52;9.80;;;;;;;;;;5050388;28;20215;-65
2023/05/19 04:34:55;;;;;;;16.75;9.25;;;;;;;;;;5050726;28;20315;-65
2023/05/19 04:37:20;;;;;;;21.08;9.50;;;;;;;;;;5050484;28;20219;-64
2023/05/19 04:39:47;;;;;;;14.68;8.80;;;;;;;;;;5050229;28;20215;-65
2023/05/19 04:42:12;;;;;;;18.25;8.00;;;;;;;;;;5050082;28;20285;-65
2023/05/19 04:44:38;;;;;;;18.25;8.82;;;;;;;;;;5050547;28;20313;-65
2023/05/19 04:47:05;;;;;;;15.82;8.02;;;;;;;;;;5049644;28;20558;-64
2023/05/19 04:49:31;;;;;;;15.23;8.30;;;;;;;;;;5050305;28;20215;-65
2023/05/19 04:51:56;;;;;;;15.23;8.40;;;;;;;;;;5050645;28;20210;-65
2023/05/19 04:54:22;;;;;;;15.63;8.75;;;;;;;;;;5048806;28;20591;-66
2023/05/19 04:56:47;;;;;;;16.70;8.02;;;;;;;;;;5050609;28;20698;-66
2023/05/19 04:59:12;;;;;;;15.23;8.40;;;;;;;;;;5049920;28;20281;-65
2023/05/19 05:01:39;;;;;;;16.20;7.82;;;;;;;;;;5049629;28;20608;-65
2023/05/19 05:04:04;;;;;;;17.75;8.50;;;;;;;;;;5049996;28;20215;-65
2023/05/19 05:06:30;;;;;;;14.40;8.18;;;;;;;;;;5049752;28;20213;-65
2023/05/19 05:08:55;;;;;;;15.73;7.82;;;;;;;;;;5050064;28;20210;-65
2023/05/19 05:11:21;;;;;;;13.52;7.07;;;;;;;;;;5049716;28;20553;-65
2023/05/19 05:13:46;;;;;;;16.70;7.55;;;;;;;;;;5049558;28;20207;-65
2023/05/19 05:16:12;;;;;;;14.63;7.38;;;;;;;;;;5049390;28;20242;-65
2023/05/19 05:18:38;;;;;;;15.48;7.68;;;;;;;;;;5050055;28;20372;-65
2023/05/19 05:21:03;;;;;;;13.10;7.03;;;;;;;;;;5049327;28;20261;-65
2023/05/19 05:23:29;;;;;;;15.60;7.25;;;;;;;;;;5049738;28;20207;-65
2023/05/19 05:25:54;;;;;;;17.70;8.18;;;;;;;;;;5050286;28;20207;-65
2023/05/19 05:28:20;;;;;;;15.15;7.43;;;;;;;;;;5049190;28;20223;-65
2023/05/19 05:30:45;;;;;;;11.70;7.45;;;;;;;;;;5049686;28;20203;-65
2023/05/19 05:33:10;;;;;;;14.15;7.43;;;;;;;;;;5049720;28;20701;-65
2023/05/19 05:35:36;;;;;;;14.77;7.53;;;;;;;;;;5049539;28;20210;-65
2023/05/19 05:38:01;;;;;;;13.80;6.65;;;;;;;;;;5049537;28;20199;-64
2023/05/19 05:40:26;;;;;;;13.85;7.35;;;;;;;;;;5049996;28;20210;-65
2023/05/19 05:42:54;;;;;;;15.30;7.05;;;;;;;;;;5049512;28;20450;-66
2023/05/19 05:45:20;;;;;;;14.45;7.30;;;;;;;;;;5049176;28;20206;-66
2023/05/19 05:47:45;;;;;;;11.70;6.05;;;;;;;;;;5049967;28;20211;-65
2023/05/19 05:50:11;;;;;;;13.57;7.13;;;;;;;;;;5049023;28;20253;-65
2023/05/19 05:52:36;;;;;;;15.93;6.70;;;;;;;;;;5049764;28;20545;-65
2023/05/19 05:55:02;;;;;;;12.77;6.32;;;;;;;;;;5049522;28;20211;-66
2023/05/19 05:57:29;;;;;;;12.38;6.63;;;;;;;;;;5049100;28;20242;-66
2023/05/19 05:59:54;;;;;;;13.18;6.55;;;;;;;;;;5049961;28;20737;-66
2023/05/19 06:02:20;;;;;;;11.63;6.50;;;;;;;;;;5049295;28;20309;-66
2023/05/19 06:04:46;;;;;;;11.95;6.47;;;;;;;;;;5047855;28;20211;-66
2023/05/19 06:07:11;;;;;;;16.05;6.47;;;;;;;;;;5051374;28;20207;-66
2023/05/19 06:09:36;;;;;;;17.20;7.25;;;;;;;;;;5053514;28;20223;-66
2023/05/19 06:12:01;;;;;;;13.18;5.85;;;;;;;;;;5052523;28;20293;-65
2023/05/19 06:14:27;;;;;;;14.27;6.32;;;;;;;;;;5053314;28;20207;-66
2023/05/19 06:16:52;;;;;;;13.35;5.85;;;;;;;;;;5052758;28;20298;-66
2023/05/19 06:19:18;;;;;;;12.82;5.72;;;;;;;;;;5052493;28;20223;-66
2023/05/19 06:21:44;;;;;;;11.55;6.13;;;;;;;;;;5053202;28;20264;-66
2023/05/19 06:24:09;;;;;;;11.38;5.63;;;;;;;;;;5052379;28;20211;-66
2023/05/19 06:26:34;;;;;;;10.57;5.90;;;;;;;;;;5053049;28;20206;-66
2023/05/19 06:29:00;;;;;;;12.00;5.50;;;;;;;;;;5053135;28;20223;-66
2023/05/19 06:31:26;;;;;;;11.15;5.47;;;;;;;;;;5052129;28;20276;-66
2023/05/19 06:33:52;;;;;;;12.57;5.93;;;;;;;;;;5052902;28;20270;-66
2023/05/19 06:36:17;;;;;;;12.70;5.88;;;;;;;;;;5051353;28;20642;-66
2023/05/19 06:38:43;;;;;;;12.98;6.18;;;;;;;;;;5052535;28;20264;-66
2023/05/19 06:41:08;;;;;;;14.88;6.43;;;;;;;;;;5052366;28;20214;-66
2023/05/19 06:43:33;;;;;;;10.73;5.75;;;;;;;;;;5052825;28;20207;-66
2023/05/19 06:45:59;;;;;;;13.25;5.40;;;;;;;;;;5052587;28;20218;-66
2023/05/19 06:48:24;;;;;;;12.00;5.35;;;;;;;;;;5051925;28;20688;-66
2023/05/19 06:50:49;;;;;;;12.35;5.80;;;;;;;;;;5052722;28;20211;-66
2023/05/19 06:53:15;;;;;;;12.18;5.25;;;;;;;;;;5051715;28;20203;-66
2023/05/19 06:55:41;;;;;;;10.50;5.22;;;;;;;;;;5052479;28;20203;-66
2023/05/19 06:58:06;;;;;;;10.27;5.80;;;;;;;;;;5052359;28;20231;-67
2023/05/19 07:00:31;;;;;;;11.57;6.15;;;;;;;;;;5052243;28;20211;-67
2023/05/19 07:02:57;;;;;;;12.43;6.55;;;;;;;;;;5052168;28;20265;-66
2023/05/19 07:05:22;;;;;;;9.93;5.78;;;;;;;;;;5052401;28;20672;-66
2023/05/19 07:07:47;;;;;;;12.10;5.93;;;;;;;;;;5051652;28;20207;-66
2023/05/19 07:10:13;;;;;;;11.70;5.70;;;;;;;;;;5052231;28;20207;-66
2023/05/19 07:12:38;;;;;;;13.23;6.28;;;;;;;;;;5052384;28;20290;-67
2023/05/19 07:15:03;;;;;;;11.75;6.25;;;;;;;;;;5051092;28;20223;-66
2023/05/19 07:17:29;;;;;;;10.77;5.47;;;;;;;;;;5051589;28;20207;-67
2023/05/19 07:19:54;;;;;;;13.35;5.65;;;;;;;;;;5052292;28;20239;-67
2023/05/19 07:22:22;;;;;;;10.27;4.95;;;;;;;;;;5051078;28;20291;-67
2023/05/19 07:24:48;;;;;;;13.02;5.60;;;;;;;;;;5052104;28;20203;-67
2023/05/19 07:27:13;;;;;;;9.90;5.05;;;;;;;;;;5051176;28;20230;-66
2023/05/19 07:29:38;;;;;;;14.40;5.15;;;;;;;;;;5051741;28;20298;-67
2023/05/19 07:32:04;;;;;;;9.43;5.15;;;;;;;;;;5051640;28;20242;-66
2023/05/19 07:34:29;;;;;;;11.25;5.32;;;;;;;;;;5051266;28;20690;-67
2023/05/19 07:36:55;;;;;;;11.27;4.95;;;;;;;;;;5051657;28;20211;-68
2023/05/19 07:39:20;;;;;;;12.02;4.72;;;;;;;;;;5051482;28;20250;-67
2023/05/19 07:41:51;;;;;;;10.73;4.57;;;;;;;;;;5051524;28;20850;-68
2023/05/19 07:44:16;;;;;;;9.25;4.07;;;;;;;;;;5051010;28;20738;-67
2023/05/19 07:46:42;;;;;;;11.65;4.30;;;;;;;;;;5051964;28;20252;-67
2023/05/19 07:49:07;;;;;;;12.95;4.05;;;;;;;;;;5050445;28;20223;-66
2023/05/19 07:51:32;;;;;;;10.45;3.80;;;;;;;;;;5051556;28;20215;-67
2023/05/19 07:53:58;;;;;;;10.05;4.00;;;;;;;;;;5051596;28;20581;-68
2023/05/19 07:56:23;;;;;;;9.77;4.22;;;;;;;;;;5050852;28;20207;-68
2023/05/19 07:58:49;;;;;;;13.10;4.40;;;;;;;;;;5051282;28;20217;-68
2023/05/19 08:01:14;;;;;;;12.85;4.20;;;;;;;;;;5050883;28;20257;-67
2023/05/19 08:03:39;;;;;;;9.15;4.00;;;;;;;;;;5050895;28;20207;-67
2023/05/19 08:06:04;;;;;;;10.73;4.18;;;;;;;;;;5050612;28;20212;-67
2023/05/19 08:08:32;;;;;;;10.15;3.90;;;;;;;;;;5051151;28;20269;-67
2023/05/19 08:11:00;;;;;;;10.20;4.13;;;;;;;;;;5050454;28;20286;-67
2023/05/19 08:13:25;;;;;;;11.57;3.80;;;;;;;;;;5050577;28;20249;-68
2023/05/19 08:15:51;;;;;;;11.30;3.72;;;;;;;;;;5050954;28;20215;-68
2023/05/19 08:18:16;;;;;;;10.77;3.63;;;;;;;;;;5049711;28;20231;-68
2023/05/19 08:20:41;;;;;;;9.98;3.95;;;;;;;;;;5050934;28;20682;-68
2023/05/19 08:23:07;;;;;;;11.27;3.45;;;;;;;;;;5050674;28;20230;-67
2023/05/19 08:25:32;;;;;;;11.52;4.15;;;;;;;;;;5050292;28;20211;-67
2023/05/19 08:27:57;;;;;;;9.52;4.00;;;;;;;;;;5051033;28;20234;-68
2023/05/19 08:30:23;;;;;;;11.57;4.00;;;;;;;;;;5049500;28;20215;-68
2023/05/19 08:32:48;;;;;;;10.40;3.55;;;;;;;;;;5050314;28;20741;-68
2023/05/19 08:35:13;;;;;;;13.20;3.45;;;;;;;;;;5050163;28;20221;-68
2023/05/19 08:37:39;;;;;;;12.60;3.72;;;;;;;;;;5050305;28;20337;-68
2023/05/19 08:40:04;;;;;;;12.25;3.15;;;;;;;;;;5050145;28;20222;-67
2023/05/19 08:42:31;;;;;;;9.88;3.13;;;;;;;;;;5050884;28;20241;-68
2023/05/19 08:44:57;;;;;;;10.20;2.95;;;;;;;;;;5050173;28;20199;-67
2023/05/19 08:47:22;;;;;;;10.48;2.95;;;;;;;;;;5050007;28;20662;-67
2023/05/19 08:49:50;;;;;;;8.95;3.05;;;;;;;;;;5050365;28;20229;-68
2023/05/19 08:52:23;;;;;;;9.18;2.55;;;;;;;;;;5049744;28;20213;-67
2023/05/19 08:54:49;;;;;;;8.25;2.33;;;;;;;;;;5048945;28;20215;-68
2023/05/19 08:57:15;;;;;;;10.90;2.80;;;;;;;;;;5048927;28;20211;-69
2023/05/19 08:59:40;;;;;;;8.40;2.40;;;;;;;;;;5050012;28;20575;-68
2023/05/19 09:02:05;;;;;;;11.05;2.42;;;;;;;;;;5049642;28;20280;-67
2023/05/19 09:04:30;;;;;;;9.07;2.05;;;;;;;;;;5049089;28;20235;-68
2023/05/19 09:06:57;;;;;;;6.75;2.42;;;;;;;;;;5049679;28;20226;-68
2023/05/19 09:09:22;;;;;;;8.88;2.10;;;;;;;;;;5049805;28;20219;-68
2023/05/19 09:11:48;;;;;;;8.60;1.92;;;;;;;;;;5050368;28;20257;-68
2023/05/19 09:14:13;;;;;;;8.32;2.00;;;;;;;;;;5048770;28;20637;-68
2023/05/19 09:16:38;;;;;;;9.15;2.55;;;;;;;;;;5050122;28;20207;-68
2023/05/19 09:19:04;;;;;;;6.45;2.00;;;;;;;;;;5049678;28;20231;-67
2023/05/19 09:21:29;;;;;;;6.57;1.85;;;;;;;;;;5049359;28;20205;-67
2023/05/19 09:23:55;;;;;;;7.70;1.80;;;;;;;;;;5050131;28;20234;-68
2023/05/19 09:26:22;;;;;;;9.48;2.20;;;;;;;;;;5049643;28;20230;-68
2023/05/19 09:28:47;;;;;;;9.35;2.40;;;;;;;;;;5049531;28;20215;-68
2023/05/19 09:31:12;;;;;;;8.13;2.40;;;;;;;;;;5049563;28;20214;-68
2023/05/19 09:33:38;;;;;;;6.38;2.03;;;;;;;;;;5050005;28;20210;-68
2023/05/19 09:36:05;;;;;;;7.63;2.17;;;;;;;;;;5048850;28;20656;-68
2023/05/19 09:38:30;;;;;;;7.93;1.70;;;;;;;;;;5050183;28;20289;-68
2023/05/19 09:40:56;;;;;;;9.32;2.00;;;;;;;;;;5051256;28;20294;-68
2023/05/19 09:43:22;;;;;;;10.55;2.05;;;;;;;;;;5053410;28;20568;-68
2023/05/19 09:45:47;;;;;;;6.95;2.10;;;;;;;;;;5053913;28;20658;-68
2023/05/19 09:48:14;;;;;;;8.13;2.10;;;;;;;;;;5052777;28;20227;-68
2023/05/19 09:50:39;;;;;;;7.93;2.00;;;;;;;;;;5053588;28;20349;-68
2023/05/19 09:53:04;;;;;;;7.25;2.20;;;;;;;;;;5053329;28;20302;-68
2023/05/19 09:55:31;;;;;;;7.38;2.20;;;;;;;;;;5052054;28;20207;-68
2023/05/19 09:57:58;;;;;;;9.35;2.30;;;;;;;;;;5053625;28;20211;-68
2023/05/19 10:00:24;;;;;;;6.80;2.20;;;;;;;;;;5053336;28;20735;-68
2023/05/19 10:02:49;;;;;;;7.03;1.90;;;;;;;;;;5053016;28;20293;-68
2023/05/19 10:05:16;;;;;;;6.22;1.92;;;;;;;;;;5053058;28;20334;-69
2023/05/19 10:07:43;;;;;;;5.78;1.90;;;;;;;;;;5053423;28;20701;-69
2023/05/19 10:10:08;;;;;;;8.57;2.17;;;;;;;;;;5051369;28;20238;-68
2023/05/19 10:12:34;;;;;;;9.55;2.30;;;;;;;;;;5053661;28;20222;-68
2023/05/19 10:14:59;;;;;;;9.30;2.05;;;;;;;;;;5053343;28;20207;-68
2023/05/19 10:17:25;;;;;;;7.80;2.40;;;;;;;;;;5051958;28;20207;-68
2023/05/19 10:19:50;;;;;;;8.85;2.17;;;;;;;;;;5053373;28;20207;-68
2023/05/19 10:22:15;;;;;;;6.78;2.20;;;;;;;;;;5051471;28;20226;-68
2023/05/19 10:24:41;;;;;;;7.95;2.33;;;;;;;;;;5052573;28;20264;-68
2023/05/19 10:27:07;;;;;;;7.88;2.05;;;;;;;;;;5052830;28;20207;-68
2023/05/19 10:29:33;;;;;;;8.82;2.60;;;;;;;;;;5051903;28;20258;-68
2023/05/19 10:31:59;;;;;;;8.75;2.72;;;;;;;;;;5052462;28;20289;-68
2023/05/19 10:34:36;;;;;;;6.68;2.13;;;;;;;;;;5051235;28;20227;-69
2023/05/19 10:37:12;;;;;;;6.45;2.20;;;;;;;;;;5050771;28;20265;-68
2023/05/19 10:39:37;;;;;;;8.85;2.40;;;;;;;;;;5051552;28;20222;-69
2023/05/19 10:42:04;;;;;;;6.63;2.10;;;;;;;;;;5051241;28;20238;-67
2023/05/19 10:44:38;;;;;;;7.95;2.28;;;;;;;;;;5052262;28;20211;-68
2023/05/19 10:47:05;;;;;;;6.97;2.10;;;;;;;;;;5052262;28;20618;-68
2023/05/19 10:49:33;;;;;;;7.25;2.10;;;;;;;;;;5052668;28;20239;-69
2023/05/19 10:51:58;;;;;;;9.50;2.10;;;;;;;;;;5050153;28;20715;-69
2023/05/19 10:54:42;;;;;;;11.23;2.20;;;;;;;;;;5052099;28;20301;-69
2023/05/19 10:57:07;;;;;;;8.30;2.20;;;;;;;;;;5052331;28;20301;-68
2023/05/19 10:59:34;;;;;;;9.65;2.40;;;;;;;;;;5052047;28;20291;-69
2023/05/19 11:02:05;;;;;;;6.35;1.95;;;;;;;;;;5052584;28;20289;-69
2023/05/19 11:04:38;;;;;;;7.30;2.60;;;;;;;;;;5052097;28;20265;-68
2023/05/19 11:07:03;;;;;;;10.20;2.55;;;;;;;;;;5051446;28;20881;-68
2023/05/19 11:09:32;;;;;;;9.35;2.50;;;;;;;;;;5052170;28;20215;-68
2023/05/19 11:12:02;;;;;;;10.63;2.58;;;;;;;;;;5052565;28;20611;-68
2023/05/19 11:14:27;;;;;;;10.98;2.28;;;;;;;;;;5049785;28;20277;-68
2023/05/19 11:16:55;;;;;;;7.43;2.28;;;;;;;;;;5043198;28;20208;-68
2023/05/19 11:19:26;;;;;;;6.32;2.40;;;;;;;;;;5044720;28;20404;-68
2023/05/19 11:21:54;;;;;;;12.07;2.60;;;;;;;;;;5052217;28;20261;-68
2023/05/19 11:24:33;;;;;;;9.23;2.33;;;;;;;;;;5051485;28;20273;-68
2023/05/19 11:26:59;;;;;;;6.35;2.13;;;;;;;;;;5051745;28;20293;-68
2023/05/19 11:29:25;;;;;;;7.47;2.45;;;;;;;;;;5051308;28;20307;-68
2023/05/19 11:31:50;;;;;;;7.13;2.28;;;;;;;;;;5050896;28;20663;-69
2023/05/19 11:34:15;;;;;;;8.35;2.33;;;;;;;;;;5050649;28;20669;-68
2023/05/19 11:36:41;;;;;;;7.55;2.53;;;;;;;;;;5052003;28;20210;-68
2023/05/19 11:39:06;;;;;;;12.18;2.50;;;;;;;;;;5051337;28;20210;-67
2023/05/19 11:41:31;;;;;;;6.63;2.40;;;;;;;;;;5051376;28;20241;-68
2023/05/19 11:43:57;;;;;;;8.90;2.17;;;;;;;;;;5051822;28;20561;-69
2023/05/19 11:46:22;;;;;;;11.88;2.30;;;;;;;;;;5051366;28;20257;-67
2023/05/19 11:48:47;;;;;;;8.43;2.67;;;;;;;;;;5049568;28;20215;-69
2023/05/19 11:51:12;;;;;;;9.00;2.85;;;;;;;;;;5049859;28;20254;-68
2023/05/19 11:53:39;;;;;;;12.68;2.55;;;;;;;;;;5051409;28;20207;-68
2023/05/19 11:56:04;;;;;;;6.72;2.75;;;;;;;;;;5050466;28;20678;-67
2023/05/19 11:58:29;;;;;;;7.97;2.42;;;;;;;;;;5051630;28;20229;-69
2023/05/19 12:00:55;;;;;;;8.77;2.75;;;;;;;;;;5051499;28;20211;-69
2023/05/19 12:03:20;;;;;;;6.95;2.20;;;;;;;;;;5050373;28;20629;-69
2023/05/19 12:05:46;;;;;;;8.80;3.20;;;;;;;;;;5049998;28;20234;-68
2023/05/19 12:08:12;;;;;;;8.55;2.55;;;;;;;;;;5051017;28;20211;-68
2023/05/19 12:10:37;;;;;;;8.35;2.25;;;;;;;;;;5050369;28;20214;-69
2023/05/19 12:13:03;;;;;;;10.25;2.42;;;;;;;;;;5051022;28;20903;-67
2023/05/19 12:15:28;;;;;;;6.90;2.35;;;;;;;;;;5030256;28;20206;-68
2023/05/19 12:17:55;;;;;;;10.85;2.83;;;;;;;;;;5045649;28;20710;-68
2023/05/19 12:20:20;;;;;;;6.72;2.38;;;;;;;;;;5050416;28;20218;-67
2023/05/19 12:22:46;;;;;;;6.15;2.35;;;;;;;;;;5050624;28;20210;-68
2023/05/19 12:25:11;;;;;;;5.97;2.20;;;;;;;;;;5050227;28;20225;-68
2023/05/19 12:27:37;;;;;;;9.65;2.40;;;;;;;;;;5049840;28;20199;-68
2023/05/19 12:30:02;;;;;;;8.27;2.60;;;;;;;;;;5049981;28;20223;-68
2023/05/19 12:32:28;;;;;;;9.25;2.80;;;;;;;;;;5050653;28;20209;-68
2023/05/19 12:34:54;;;;;;;7.05;2.55;;;;;;;;;;5049497;28;20207;-68
2023/05/19 12:37:20;;;;;;;9.48;2.47;;;;;;;;;;5049774;28;20248;-69
2023/05/19 12:39:45;;;;;;;9.23;2.45;;;;;;;;;;5049191;28;20199;-68
2023/05/19 12:42:11;;;;;;;9.00;3.00;;;;;;;;;;5032480;28;20222;-68
2023/05/19 12:44:43;;;;;;;6.55;2.40;;;;;;;;;;5050092;28;20704;-68
2023/05/19 12:47:08;;;;;;;10.38;2.65;;;;;;;;;;5050306;28;20211;-65
2023/05/19 12:49:33;;;;;;;8.68;2.80;;;;;;;;;;5050384;28;20729;-65
2023/05/19 12:52:00;;;;;;;6.72;2.55;;;;;;;;;;5049909;28;20411;-67
2023/05/19 12:54:25;;;;;;;9.18;2.67;;;;;;;;;;5049021;28;20206;-67
2023/05/19 12:56:51;;;;;;;6.00;2.67;;;;;;;;;;5050490;28;20569;-67
2023/05/19 12:59:22;;;;;;;7.45;2.22;;;;;;;;;;5048257;28;20576;-68
2023/05/19 13:01:55;;;;;;;8.85;2.50;;;;;;;;;;5050396;28;20218;-68
2023/05/19 13:04:20;;;;;;;10.88;3.70;;;;;;;;;;5050120;28;20234;-67
2023/05/19 13:06:48;;;;;;;7.22;2.28;;;;;;;;;;5048228;28;20199;-67
2023/05/19 13:09:13;;;;;;;7.82;2.20;;;;;;;;;;5049911;28;20745;-66
2023/05/19 13:11:39;;;;;;;7.70;2.63;;;;;;;;;;5050062;28;20245;-68
2023/05/19 13:14:04;;;;;;;7.35;2.45;;;;;;;;;;5048818;28;20211;-67
2023/05/19 13:16:30;;;;;;;9.85;2.40;;;;;;;;;;5049435;28;20360;-67
2023/05/19 13:18:55;;;;;;;14.60;2.55;;;;;;;;;;5049605;28;20600;-67
2023/05/19 13:21:20;;;;;;;8.55;2.47;;;;;;;;;;5049619;28;20214;-66
2023/05/19 13:23:46;;;;;;;6.35;2.33;;;;;;;;;;5049951;28;20218;-67
2023/05/19 13:26:12;;;;;;;8.23;2.20;;;;;;;;;;5049025;28;20214;-67
2023/05/19 13:28:37;;;;;;;10.38;2.60;;;;;;;;;;5050003;28;20276;-67
2023/05/19 13:31:02;;;;;;;8.88;2.20;;;;;;;;;;5049674;28;20706;-67
2023/05/19 13:33:28;;;;;;;7.85;2.35;;;;;;;;;;5049681;28;20222;-67
2023/05/19 13:35:53;;;;;;;7.40;2.10;;;;;;;;;;5049831;28;20613;-67
2023/05/19 13:38:18;;;;;;;6.97;2.08;;;;;;;;;;5049406;28;20211;-67
2023/05/19 13:40:44;;;;;;;10.38;2.20;;;;;;;;;;5049271;28;20214;-67
2023/05/19 13:43:09;;;;;;;8.23;1.90;;;;;;;;;;5049629;28;20499;-66
2023/05/19 13:45:35;;;;;;;7.00;2.03;;;;;;;;;;5049825;28;20248;-67
2023/05/19 13:48:00;;;;;;;6.20;2.15;;;;;;;;;;5049272;28;20260;-66
2023/05/19 13:50:25;;;;;;;7.55;2.20;;;;;;;;;;5048557;28;20303;-65
2023/05/19 13:52:51;;;;;;;10.63;2.25;;;;;;;;;;5049897;28;20711;-68
2023/05/19 13:55:16;;;;;;;6.88;1.98;;;;;;;;;;5048775;28;20305;-68
2023/05/19 13:57:42;;;;;;;8.43;2.10;;;;;;;;;;5038031;28;20212;-68
2023/05/19 14:00:08;;;;;;;8.38;2.25;;;;;;;;;;5023149;28;20683;-67
2023/05/19 14:02:35;;;;;;;8.45;2.50;;;;;;;;;;5025818;28;20218;-67
2023/05/19 14:05:00;;;;;;;6.43;1.98;;;;;;;;;;5037937;28;20575;-67
2023/05/19 14:07:27;;;;;;;6.40;2.13;;;;;;;;;;5029074;28;20246;-68
2023/05/19 14:09:52;;;;;;;7.78;1.90;;;;;;;;;;5023895;28;20220;-68
2023/05/19 14:12:17;;;;;;;7.40;1.95;;;;;;;;;;5023727;28;20246;-66
2023/05/19 14:14:43;;;;;;;6.97;2.13;;;;;;;;;;5028634;28;20211;-67
2023/05/19 14:17:08;;;;;;;7.85;2.10;;;;;;;;;;5033381;28;20262;-67
2023/05/19 14:19:33;;;;;;;7.20;1.90;;;;;;;;;;5024197;28;20223;-67
2023/05/19 14:21:59;;;;;;;6.82;2.15;;;;;;;;;;5017163;28;20605;-68
2023/05/19 14:24:24;;;;;;;9.23;2.20;;;;;;;;;;5015618;28;20239;-67
2023/05/19 14:26:49;;;;;;;7.25;2.38;;;;;;;;;;5018275;28;20323;-67